Time;durP1;ratioP1;P1;durP2;ratioP2;P2;SDS_P1;SDS_P2;PMS_P1;PMS_P2;Temp;Humidity;BMP_temperature;BMP_pressure;BME280_temperature;BME280_humidity;BME280_pressure;Samples;Min_cycle;Max_cycle;Signal;HPM_P1;HPM_P2
2022/07/19 00:00:46;;;;;;;4.03;2.70;;;;;;;19.34;49.77;100398.31;4966861;28;20235;-67
2022/07/19 00:03:12;;;;;;;7.77;2.80;;;;;;;19.33;49.49;100394.03;4982392;28;20200;-66
2022/07/19 00:05:37;;;;;;;3.37;2.53;;;;;;;19.30;49.41;100394.31;4973065;28;20192;-66
2022/07/19 00:08:02;;;;;;;4.83;2.93;;;;;;;19.19;50.15;100392.63;4972791;28;20587;-66
2022/07/19 00:10:28;;;;;;;5.77;2.77;;;;;;;19.06;51.38;100392.03;4960611;28;20224;-66
2022/07/19 00:12:53;;;;;;;3.87;2.70;;;;;;;19.07;51.64;100387.66;4975989;28;20187;-66
2022/07/19 00:15:18;;;;;;;10.73;2.93;;;;;;;19.22;50.48;100390.72;4972549;28;20200;-67
2022/07/19 00:17:47;;;;;;;9.60;3.00;;;;;;;19.27;50.57;100386.75;4973075;28;20553;-66
2022/07/19 00:20:15;;;;;;;8.17;3.00;;;;;;;19.21;51.02;100395.09;4979112;28;20191;-67
2022/07/19 00:22:40;;;;;;;6.53;3.43;;;;;;;19.15;51.31;100391.25;4989687;28;20188;-66
2022/07/19 00:25:06;;;;;;;4.67;2.80;;;;;;;19.13;51.62;100389.75;4976471;28;20651;-66
2022/07/19 00:27:32;;;;;;;4.73;3.40;;;;;;;18.95;53.20;100390.38;4991246;28;20180;-66
2022/07/19 00:29:58;;;;;;;4.13;2.90;;;;;;;18.84;54.68;100393.84;4971264;28;20522;-67
2022/07/19 00:32:24;;;;;;;7.80;3.43;;;;;;;18.88;54.78;100389.22;4977093;28;20307;-66
2022/07/19 00:34:49;;;;;;;5.60;3.10;;;;;;;18.97;54.28;100383.22;4966273;28;20204;-66
2022/07/19 00:37:15;;;;;;;7.53;3.27;;;;;;;18.97;53.74;100392.84;4973142;28;20272;-66
2022/07/19 00:39:40;;;;;;;6.93;3.20;;;;;;;19.02;53.72;100388.06;4975944;28;20178;-66
2022/07/19 00:42:06;;;;;;;9.57;3.70;;;;;;;18.96;53.97;100388.56;4981273;28;20235;-66
2022/07/19 00:44:31;;;;;;;9.80;3.73;;;;;;;18.90;54.70;100389.88;4976081;28;20180;-66
2022/07/19 00:46:57;;;;;;;8.23;2.97;;;;;;;18.86;54.35;100384.09;4976075;28;20267;-66
2022/07/19 00:49:22;;;;;;;6.70;3.27;;;;;;;18.89;54.14;100385.66;4975643;28;20182;-66
2022/07/19 00:51:52;;;;;;;9.43;3.43;;;;;;;18.80;54.46;100384.63;4979320;28;20226;-66
2022/07/19 00:54:19;;;;;;;5.10;2.97;;;;;;;18.74;55.56;100384.34;4977012;28;20201;-67
2022/07/19 00:56:48;;;;;;;4.73;3.00;;;;;;;18.69;55.33;100374.28;4976033;28;20180;-66
2022/07/19 00:59:14;;;;;;;8.90;3.50;;;;;;;18.65;55.88;100388.53;4990190;28;20295;-67
2022/07/19 01:01:40;;;;;;;4.70;3.07;;;;;;;18.64;56.51;100385.13;4978215;28;20721;-66
2022/07/19 01:04:05;;;;;;;7.63;3.10;;;;;;;18.60;56.07;100377.69;4978083;28;20219;-67
2022/07/19 01:06:31;;;;;;;6.23;2.97;;;;;;;18.50;57.05;100385.44;4975780;28;20314;-66
2022/07/19 01:08:56;;;;;;;6.50;3.10;;;;;;;18.35;58.43;100385.75;4974861;28;20601;-66
2022/07/19 01:11:22;;;;;;;8.43;3.20;;;;;;;18.38;58.18;100385.50;4963606;28;20581;-66
2022/07/19 01:13:48;;;;;;;5.83;3.20;;;;;;;18.44;56.79;100386.75;4978684;28;20203;-67
2022/07/19 01:16:14;;;;;;;3.33;2.90;;;;;;;18.32;57.04;100395.59;4975519;28;20658;-66
2022/07/19 01:18:40;;;;;;;5.87;3.10;;;;;;;18.28;58.19;100397.63;4973519;28;20180;-66
2022/07/19 01:21:07;;;;;;;4.37;3.10;;;;;;;18.42;56.68;100393.06;4973223;28;20215;-66
2022/07/19 01:23:32;;;;;;;4.53;3.33;;;;;;;18.43;56.25;100392.13;4982272;28;20202;-66
2022/07/19 01:25:57;;;;;;;6.27;2.93;;;;;;;18.39;56.38;100388.94;4974578;28;20188;-67
2022/07/19 01:28:23;;;;;;;9.37;3.03;;;;;;;18.27;56.68;100385.59;4975259;28;20203;-66
2022/07/19 01:30:48;;;;;;;8.00;3.03;;;;;;;18.26;56.45;100383.09;4970902;28;20231;-66
2022/07/19 01:33:13;;;;;;;5.47;2.97;;;;;;;18.21;57.03;100391.28;4972714;28;20461;-66
2022/07/19 01:35:39;;;;;;;5.50;3.13;;;;;;;18.20;57.47;100397.44;4975173;28;20231;-66
2022/07/19 01:38:04;;;;;;;3.63;2.60;;;;;;;18.14;57.77;100392.75;4974864;28;20604;-66
2022/07/19 01:40:30;;;;;;;4.23;3.13;;;;;;;18.22;57.95;100390.31;4968222;28;20796;-66
2022/07/19 01:42:56;;;;;;;4.77;3.20;;;;;;;18.15;58.24;100394.41;4986224;28;20181;-66
2022/07/19 01:45:21;;;;;;;5.73;3.20;;;;;;;18.08;58.48;100403.66;4973968;28;20186;-66
2022/07/19 01:47:47;;;;;;;8.10;3.33;;;;;;;17.97;59.53;100397.53;4974895;28;20275;-66
2022/07/19 01:50:15;;;;;;;5.47;3.37;;;;;;;17.87;59.70;100394.84;4980718;28;20557;-66
2022/07/19 01:52:41;;;;;;;4.90;3.00;;;;;;;17.80;60.07;100393.69;4988286;28;20250;-67
2022/07/19 01:55:06;;;;;;;5.23;3.10;;;;;;;17.90;58.94;100385.97;4975060;28;20756;-66
2022/07/19 01:57:32;;;;;;;5.07;3.10;;;;;;;17.94;58.13;100386.53;4974879;28;20251;-66
2022/07/19 01:59:57;;;;;;;8.03;3.30;;;;;;;17.80;58.55;100396.28;4974346;28;20291;-68
2022/07/19 02:02:23;;;;;;;8.67;3.10;;;;;;;17.78;58.54;100395.56;4979922;28;20596;-66
2022/07/19 02:04:48;;;;;;;4.57;3.23;;;;;;;17.70;58.83;100388.38;4971969;28;20196;-67
2022/07/19 02:07:14;;;;;;;7.23;3.40;;;;;;;17.73;58.67;100385.53;4989645;28;20278;-66
2022/07/19 02:09:39;;;;;;;6.33;3.57;;;;;;;17.71;59.53;100379.63;4974325;28;20207;-66
2022/07/19 02:12:05;;;;;;;4.63;3.07;;;;;;;17.67;60.58;100382.59;4968185;28;20285;-66
2022/07/19 02:14:30;;;;;;;5.57;3.10;;;;;;;17.66;60.83;100373.97;4965239;28;20200;-67
2022/07/19 02:16:55;;;;;;;4.40;3.50;;;;;;;17.65;61.49;100384.47;4974635;28;20237;-66
2022/07/19 02:19:21;;;;;;;5.50;3.10;;;;;;;17.50;62.06;100376.97;4974117;28;20195;-66
2022/07/19 02:21:47;;;;;;;5.33;3.00;;;;;;;17.41;62.54;100369.88;4966370;28;20239;-67
2022/07/19 02:24:12;;;;;;;7.30;3.10;;;;;;;17.46;62.89;100375.53;4975845;28;20226;-66
2022/07/19 02:26:37;;;;;;;5.47;3.47;;;;;;;17.43;63.67;100378.41;4974050;28;20180;-66
2022/07/19 02:29:03;;;;;;;6.60;3.37;;;;;;;17.37;63.32;100374.50;4969647;28;20520;-66
2022/07/19 02:31:28;;;;;;;4.37;3.10;;;;;;;17.28;62.09;100364.84;4973046;28;20684;-66
2022/07/19 02:33:53;;;;;;;6.17;3.10;;;;;;;17.24;61.55;100363.41;4972165;28;20204;-67
2022/07/19 02:36:19;;;;;;;10.57;3.10;;;;;;;17.18;60.65;100363.88;4974120;28;20180;-66
2022/07/19 02:38:45;;;;;;;8.73;3.37;;;;;;;17.10;59.70;100369.69;4973619;28;20263;-67
2022/07/19 02:41:10;;;;;;;8.70;3.30;;;;;;;17.03;59.88;100361.56;4972650;28;20310;-66
2022/07/19 02:43:36;;;;;;;5.27;2.80;;;;;;;17.00;59.97;100364.38;4980160;28;20227;-66
2022/07/19 02:46:01;;;;;;;4.97;3.13;;;;;;;16.96;59.97;100367.34;4973640;28;20228;-66
2022/07/19 02:48:26;;;;;;;8.13;3.30;;;;;;;16.90;60.46;100366.00;4974000;28;20188;-66
2022/07/19 02:50:52;;;;;;;5.33;3.40;;;;;;;16.85;60.25;100360.34;4969634;28;20607;-67
2022/07/19 02:53:17;;;;;;;3.47;2.97;;;;;;;16.77;61.27;100361.75;4969180;28;20172;-66
2022/07/19 02:55:43;;;;;;;4.50;2.90;;;;;;;16.76;61.13;100359.28;4968107;28;20183;-67
2022/07/19 02:58:08;;;;;;;7.20;3.00;;;;;;;16.72;61.51;100371.69;4973328;28;20199;-66
2022/07/19 03:00:33;;;;;;;8.13;3.40;;;;;;;16.76;61.46;100369.69;4966692;28;20270;-66
2022/07/19 03:05:46;;;;;;;4.00;3.13;;;;;;;16.65;62.08;100362.69;4973865;28;20677;-66
2022/07/19 03:08:11;;;;;;;6.30;3.07;;;;;;;16.58;62.47;100362.34;4973018;28;20675;-66
2022/07/19 03:10:37;;;;;;;5.50;2.83;;;;;;;16.53;62.65;100361.03;4961230;28;20235;-66
2022/07/19 03:13:02;;;;;;;5.07;3.10;;;;;;;16.55;62.69;100366.94;4976247;28;20218;-66
2022/07/19 03:15:28;;;;;;;5.97;3.53;;;;;;;16.55;62.72;100362.56;4966568;28;20258;-66
2022/07/19 03:17:53;;;;;;;7.07;3.27;;;;;;;16.58;62.65;100364.09;4972228;28;20180;-66
2022/07/19 03:20:18;;;;;;;5.67;3.40;;;;;;;16.57;62.75;100362.44;4964174;28;20184;-66
2022/07/19 03:22:43;;;;;;;4.73;3.00;;;;;;;16.59;62.80;100371.75;4986557;28;20229;-66
2022/07/19 03:25:09;;;;;;;5.53;3.37;;;;;;;16.62;63.41;100371.53;4973619;28;20295;-66
2022/07/19 03:27:34;;;;;;;10.90;3.40;;;;;;;16.55;63.69;100365.16;4973195;28;20555;-66
2022/07/19 03:30:00;;;;;;;5.37;3.40;;;;;;;16.56;64.11;100373.75;4972692;28;20188;-66
2022/07/19 03:32:25;;;;;;;4.90;3.40;;;;;;;16.39;65.25;100375.06;4958506;28;20703;-66
2022/07/19 03:34:50;;;;;;;5.33;2.90;;;;;;;16.24;66.25;100377.03;4968814;28;20204;-67
2022/07/19 03:37:16;;;;;;;6.60;3.67;;;;;;;16.25;66.99;100370.91;4972628;28;20184;-66
2022/07/19 03:39:41;;;;;;;3.53;2.70;;;;;;;16.14;68.16;100379.47;4972576;28;20278;-66
2022/07/19 03:42:06;;;;;;;5.63;3.47;;;;;;;16.09;68.94;100373.78;4964485;28;20234;-67
2022/07/19 03:44:32;;;;;;;5.17;3.03;;;;;;;16.13;69.07;100377.81;4969886;28;20196;-67
2022/07/19 03:46:57;;;;;;;8.00;2.93;;;;;;;16.09;69.51;100374.59;4973307;28;20555;-66
2022/07/19 03:49:22;;;;;;;6.33;3.27;;;;;;;16.12;69.68;100379.59;4972761;28;20184;-66
2022/07/19 03:51:47;;;;;;;3.90;3.03;;;;;;;16.24;69.30;100377.03;4980762;28;20554;-67
2022/07/19 03:54:13;;;;;;;5.77;3.67;;;;;;;16.32;69.08;100379.84;4974483;28;20195;-67
2022/07/19 03:56:38;;;;;;;6.47;3.13;;;;;;;16.43;68.45;100385.09;4976607;28;20190;-66
2022/07/19 03:59:04;;;;;;;4.17;3.03;;;;;;;16.50;67.84;100382.84;4976649;28;20188;-66
2022/07/19 04:01:29;;;;;;;5.63;3.20;;;;;;;16.59;68.07;100384.75;4977987;28;20361;-66
2022/07/19 04:03:55;;;;;;;7.43;3.00;;;;;;;16.56;68.42;100384.16;4972298;28;20317;-67
2022/07/19 04:06:20;;;;;;;5.10;3.00;;;;;;;16.60;67.67;100376.03;4969721;28;20176;-66
2022/07/19 04:08:45;;;;;;;5.30;3.87;;;;;;;16.65;67.60;100377.47;4971640;28;20225;-66
2022/07/19 04:11:11;;;;;;;8.43;3.70;;;;;;;16.67;67.18;100380.75;4965276;28;20235;-66
2022/07/19 04:13:36;;;;;;;6.00;3.43;;;;;;;16.77;67.40;100379.13;4970832;28;20184;-66
2022/07/19 04:16:02;;;;;;;5.73;2.97;;;;;;;16.78;67.48;100379.00;4976493;28;20176;-66
2022/07/19 04:18:27;;;;;;;5.60;2.93;;;;;;;16.85;67.17;100384.53;4976454;28;20184;-66
2022/07/19 04:20:53;;;;;;;8.00;3.90;;;;;;;16.97;66.52;100377.63;4967723;28;20231;-66
2022/07/19 04:23:18;;;;;;;4.27;3.27;;;;;;;17.04;65.99;100375.38;4985203;28;20181;-66
2022/07/19 04:25:43;;;;;;;6.53;3.17;;;;;;;17.12;64.76;100377.38;4976417;28;20180;-67
2022/07/19 04:28:09;;;;;;;5.40;3.47;;;;;;;17.14;65.21;100378.94;4974787;28;20211;-66
2022/07/19 04:30:34;;;;;;;6.00;3.23;;;;;;;17.24;65.48;100379.00;4969776;28;20227;-67
2022/07/19 04:32:59;;;;;;;4.17;3.23;;;;;;;17.31;64.80;100380.19;4991215;28;20181;-66
2022/07/19 04:35:25;;;;;;;5.43;3.77;;;;;;;17.38;64.35;100378.75;4975916;28;20200;-67
2022/07/19 04:37:50;;;;;;;4.60;3.47;;;;;;;17.42;65.36;100380.16;4974739;28;20176;-66
2022/07/19 04:40:15;;;;;;;10.10;3.83;;;;;;;17.47;66.10;100392.00;4966049;28;20191;-66
2022/07/19 04:42:40;;;;;;;6.27;3.50;;;;;;;17.50;64.98;100389.97;4974672;28;20181;-67
2022/07/19 04:45:06;;;;;;;7.30;3.60;;;;;;;17.57;64.92;100393.72;4976198;28;20191;-67
2022/07/19 04:47:32;;;;;;;5.47;3.70;;;;;;;17.61;64.44;100391.69;4975931;28;20216;-67
2022/07/19 04:49:57;;;;;;;3.93;3.20;;;;;;;17.68;64.59;100399.88;4975175;28;20180;-67
2022/07/19 04:52:22;;;;;;;5.73;3.30;;;;;;;17.70;64.58;100396.19;4980771;28;20262;-67
2022/07/19 04:54:48;;;;;;;4.53;2.90;;;;;;;17.80;62.14;100396.28;4975727;28;20204;-67
2022/07/19 04:57:13;;;;;;;5.97;2.87;;;;;;;17.80;61.83;100403.25;4975923;28;20192;-66
2022/07/19 04:59:39;;;;;;;6.33;3.07;;;;;;;17.89;61.84;100400.72;4987612;28;20176;-66
2022/07/19 05:02:04;;;;;;;3.97;2.37;;;;;;;17.90;62.11;100402.38;4980244;28;20737;-68
2022/07/19 05:04:30;;;;;;;3.07;2.67;;;;;;;17.92;61.92;100399.66;4975508;28;20188;-67
2022/07/19 05:06:58;;;;;;;8.60;3.60;;;;;;;17.99;61.54;100405.22;4973912;28;20206;-67
2022/07/19 05:09:28;;;;;;;9.03;2.90;;;;;;;17.98;61.84;100398.38;4975309;28;20271;-68
2022/07/19 05:11:54;;;;;;;8.03;3.30;;;;;;;18.21;61.48;100401.72;4965861;28;20223;-67
2022/07/19 05:14:20;;;;;;;6.23;3.20;;;;;;;18.38;60.39;100398.53;4976163;28;20215;-67
2022/07/19 05:16:46;;;;;;;15.40;4.00;;;;;;;18.51;60.27;100387.09;4974201;28;20180;-67
2022/07/19 05:19:11;;;;;;;10.27;3.40;;;;;;;18.66;60.64;100388.41;4973860;28;20608;-67
2022/07/19 05:21:37;;;;;;;7.83;2.70;;;;;;;18.75;60.70;100386.78;4977356;28;20238;-67
2022/07/19 05:24:02;;;;;;;10.90;3.60;;;;;;;18.88;61.61;100381.38;4978203;28;20275;-67
2022/07/19 05:26:28;;;;;;;7.23;3.23;;;;;;;19.06;58.51;100380.78;4974313;28;20180;-67
2022/07/19 05:28:54;;;;;;;6.90;3.30;;;;;;;19.28;57.14;100392.81;4975139;28;20593;-67
2022/07/19 05:31:19;;;;;;;6.37;2.83;;;;;;;19.48;57.11;100384.03;4975241;28;20231;-67
2022/07/19 05:33:44;;;;;;;6.93;2.90;;;;;;;19.67;54.71;100390.25;4980585;28;20273;-67
2022/07/19 05:36:10;;;;;;;9.33;3.33;;;;;;;19.91;53.51;100387.28;4981589;28;20690;-67
2022/07/19 05:38:38;;;;;;;10.07;3.07;;;;;;;20.11;52.77;100382.88;4982180;28;20183;-67
2022/07/19 05:41:04;;;;;;;7.37;2.83;;;;;;;20.17;54.24;100381.50;4966806;28;20228;-67
2022/07/19 05:43:29;;;;;;;10.40;3.23;;;;;;;20.32;54.06;100387.13;4974086;28;20191;-67
2022/07/19 05:45:55;;;;;;;9.97;3.40;;;;;;;20.48;53.13;100387.34;4975092;28;20188;-67
2022/07/19 05:48:20;;;;;;;11.40;4.10;;;;;;;20.66;52.40;100389.22;4975306;28;20646;-67
2022/07/19 05:50:45;;;;;;;7.40;3.23;;;;;;;20.72;52.06;100385.25;4966113;28;20258;-67
2022/07/19 05:53:11;;;;;;;11.30;3.20;;;;;;;20.92;52.38;100389.44;4974015;28;20552;-67
2022/07/19 05:55:37;;;;;;;14.43;3.10;;;;;;;21.17;51.71;100386.31;4973717;28;20311;-67
2022/07/19 05:58:02;;;;;;;7.30;3.03;;;;;;;21.22;48.87;100384.06;4973521;28;20188;-67
2022/07/19 06:00:28;;;;;;;6.13;3.03;;;;;;;21.52;48.48;100388.16;4967722;28;20238;-67
2022/07/19 06:02:53;;;;;;;12.30;3.77;;;;;;;21.82;47.68;100388.81;4986420;28;20323;-67
2022/07/19 06:05:19;;;;;;;7.33;2.60;;;;;;;22.06;46.63;100390.78;4975105;28;20330;-67
2022/07/19 06:07:44;;;;;;;6.53;3.17;;;;;;;22.29;45.69;100392.94;4974709;28;20224;-67
2022/07/19 06:10:09;;;;;;;14.10;3.80;;;;;;;22.59;44.66;100392.66;4962595;28;20590;-67
2022/07/19 06:12:34;;;;;;;7.80;2.90;;;;;;;22.89;43.23;100392.16;4978579;28;20226;-67
2022/07/19 06:15:00;;;;;;;10.50;2.87;;;;;;;22.98;42.84;100394.81;4974594;28;20627;-68
2022/07/19 06:17:25;;;;;;;9.63;2.40;;;;;;;23.31;42.05;100398.41;4973057;28;20223;-67
2022/07/19 06:19:50;;;;;;;11.93;3.57;;;;;;;23.60;41.51;100397.16;4972272;28;20242;-67
2022/07/19 06:22:16;;;;;;;12.47;3.27;;;;;;;24.02;40.52;100398.03;4979098;28;20227;-67
2022/07/19 06:24:41;;;;;;;11.23;3.03;;;;;;;24.42;39.74;100400.78;4974520;28;20198;-67
2022/07/19 06:27:06;;;;;;;11.67;2.90;;;;;;;24.67;39.45;100400.75;4974466;28;20937;-67
2022/07/19 06:29:32;;;;;;;10.63;3.17;;;;;;;24.64;38.31;100401.88;4974379;28;20255;-67
2022/07/19 06:31:57;;;;;;;4.90;3.27;;;;;;;24.90;37.10;100400.84;4978642;28;20288;-68
2022/07/19 06:34:22;;;;;;;8.90;3.53;;;;;;;25.57;36.29;100399.56;4974969;28;20215;-67
2022/07/19 06:36:47;;;;;;;7.47;2.97;;;;;;;26.01;34.75;100393.63;4974125;28;20215;-67
2022/07/19 06:39:13;;;;;;;8.93;2.83;;;;;;;26.74;33.54;100401.00;4973647;28;20220;-67
2022/07/19 06:41:38;;;;;;;6.27;2.50;;;;;;;28.43;31.58;100402.50;4966693;28;20227;-67
2022/07/19 06:44:04;;;;;;;7.35;3.40;;;;;;;30.08;28.72;100393.66;4976893;28;20195;-67
2022/07/19 06:46:29;;;;;;;9.48;2.75;;;;;;;31.63;26.25;100391.22;4972651;28;20180;-67
2022/07/19 06:48:55;;;;;;;8.70;2.60;;;;;;;32.53;25.13;100402.50;4973532;28;20217;-68
2022/07/19 06:51:20;;;;;;;14.95;3.15;;;;;;;31.31;25.85;100406.34;4973585;28;20310;-67
2022/07/19 06:53:45;;;;;;;11.95;2.60;;;;;;;33.86;23.03;100409.75;4979160;28;20210;-67
2022/07/19 06:56:10;;;;;;;9.07;2.78;;;;;;;35.48;21.16;100413.59;4973671;28;20198;-68
2022/07/19 06:58:36;;;;;;;5.70;2.72;;;;;;;35.17;21.09;100417.56;4973422;28;20266;-68
2022/07/19 07:01:02;;;;;;;14.05;3.03;;;;;;;35.50;20.50;100424.03;4961274;28;20238;-68
2022/07/19 07:03:28;;;;;;;14.40;3.20;;;;;;;36.50;19.20;100416.16;4972463;28;20658;-67
2022/07/19 07:05:53;;;;;;;6.32;2.90;;;;;;;36.48;19.35;100417.47;4972602;28;20278;-68
2022/07/19 07:08:18;;;;;;;12.00;2.53;;;;;;;36.46;19.26;100417.72;4973408;28;20227;-65
2022/07/19 07:10:44;;;;;;;6.90;2.65;;;;;;;37.50;17.73;100427.69;4961658;28;20254;-65
2022/07/19 07:13:09;;;;;;;7.50;2.70;;;;;;;37.04;18.13;100417.34;4977050;28;20654;-65
2022/07/19 07:15:34;;;;;;;5.97;2.53;;;;;;;38.74;17.30;100425.75;4967721;28;20316;-68
2022/07/19 07:18:00;;;;;;;4.82;2.70;;;;;;;38.10;17.27;100430.28;4988470;28;20180;-68
2022/07/19 07:20:25;;;;;;;8.90;3.08;;;;;;;39.04;16.51;100425.03;4965927;28;20317;-68
2022/07/19 07:22:50;;;;;;;6.30;2.45;;;;;;;39.46;16.08;100425.06;4972184;28;20488;-68
2022/07/19 07:25:16;;;;;;;12.60;2.90;;;;;;;36.77;17.80;100423.44;4972371;28;20192;-65
2022/07/19 07:27:41;;;;;;;7.85;2.70;;;;;;;34.38;20.56;100416.28;4973409;28;20267;-67
2022/07/19 07:30:08;;;;;;;6.30;2.55;;;;;;;35.21;19.26;100418.72;4950184;28;20572;-68
2022/07/19 07:32:33;;;;;;;8.65;2.47;;;;;;;34.96;19.83;100413.72;4987649;28;20202;-68
2022/07/19 07:34:58;;;;;;;7.97;2.78;;;;;;;35.62;19.20;100414.06;4971847;28;20200;-68
2022/07/19 07:37:26;;;;;;;12.65;2.67;;;;;;;37.30;17.99;100425.59;4973751;28;20184;-68
2022/07/19 07:39:51;;;;;;;5.47;2.78;;;;;;;38.00;16.96;100420.28;4971694;28;20240;-68
2022/07/19 07:42:16;;;;;;;7.60;2.50;;;;;;;39.01;16.60;100414.81;4978050;28;20235;-68
2022/07/19 07:44:42;;;;;;;9.43;2.85;;;;;;;38.81;16.42;100423.63;4973395;28;20287;-68
2022/07/19 07:47:08;;;;;;;7.55;2.88;;;;;;;40.14;15.72;100421.22;4973253;28;20642;-68
2022/07/19 07:49:34;;;;;;;8.85;2.10;;;;;;;39.24;16.43;100418.09;4972583;28;20184;-68
2022/07/19 07:51:59;;;;;;;9.60;2.60;;;;;;;39.81;15.85;100418.06;4978047;28;20230;-65
2022/07/19 07:54:25;;;;;;;6.80;2.58;;;;;;;40.34;14.54;100429.25;4973345;28;20214;-65
2022/07/19 07:56:50;;;;;;;10.05;2.38;;;;;;;39.10;16.43;100419.66;4973261;28;20184;-65
2022/07/19 07:59:15;;;;;;;8.18;2.22;;;;;;;39.36;15.91;100415.09;4971327;28;20250;-65
2022/07/19 08:01:43;;;;;;;8.15;2.58;;;;;;;40.44;14.72;100417.63;4975533;28;20277;-65
2022/07/19 08:04:09;;;;;;;8.63;2.17;;;;;;;40.03;14.87;100418.56;4987607;28;20207;-66
2022/07/19 08:06:34;;;;;;;5.88;2.10;;;;;;;40.32;15.22;100419.84;4987823;28;20192;-65
2022/07/19 08:08:59;;;;;;;8.13;2.42;;;;;;;40.79;13.71;100423.13;4972660;28;20219;-65
2022/07/19 08:11:25;;;;;;;4.47;2.35;;;;;;;40.41;15.19;100417.38;4960999;28;20224;-66
2022/07/19 08:13:50;;;;;;;6.75;2.25;;;;;;;40.62;14.52;100418.09;4976782;28;20250;-65
2022/07/19 08:16:16;;;;;;;7.60;2.00;;;;;;;43.03;12.90;100416.78;4972885;28;20631;-65
2022/07/19 08:18:42;;;;;;;9.90;2.70;;;;;;;44.05;12.56;100425.34;4971074;28;20191;-65
2022/07/19 08:21:07;;;;;;;5.72;2.00;;;;;;;44.66;11.28;100417.84;4971361;28;20346;-68
2022/07/19 08:23:32;;;;;;;9.27;2.38;;;;;;;44.06;11.74;100414.19;4979744;28;20203;-65
2022/07/19 08:25:58;;;;;;;4.95;2.55;;;;;;;43.32;12.40;100404.19;4987743;28;20180;-66
2022/07/19 08:28:23;;;;;;;7.90;2.30;;;;;;;42.50;13.17;100406.16;4971722;28;20184;-65
2022/07/19 08:30:48;;;;;;;7.93;2.40;;;;;;;42.78;12.98;100398.25;4968174;28;20618;-68
2022/07/19 08:33:14;;;;;;;5.35;1.95;;;;;;;42.58;12.94;100400.91;4982270;28;20655;-65
2022/07/19 08:35:39;;;;;;;4.72;2.20;;;;;;;42.65;12.85;100392.44;4982763;28;20222;-65
2022/07/19 08:38:04;;;;;;;10.27;2.38;;;;;;;41.88;13.39;100396.09;4972826;28;20230;-65
2022/07/19 08:40:34;;;;;;;7.13;2.60;;;;;;;41.05;14.18;100387.91;4964213;28;20302;-65
2022/07/19 08:43:03;;;;;;;10.38;2.30;;;;;;;41.74;12.99;100401.34;4991256;28;20194;-67
2022/07/19 08:45:29;;;;;;;11.75;2.40;;;;;;;42.82;12.07;100397.38;4976568;28;20200;-67
2022/07/19 08:47:57;;;;;;;9.02;3.03;;;;;;;42.78;12.57;100406.38;4976201;28;20184;-67
2022/07/19 08:50:25;;;;;;;8.93;2.53;;;;;;;41.38;13.36;100396.28;4968728;28;20247;-67
2022/07/19 08:52:52;;;;;;;14.88;2.55;;;;;;;40.84;14.09;100393.44;4991176;28;20177;-66
2022/07/19 08:55:18;;;;;;;5.97;2.20;;;;;;;40.31;14.46;100383.19;4976297;28;20258;-66
2022/07/19 08:58:00;;;;;;;5.28;2.17;;;;;;;40.90;13.93;100386.09;4991182;28;20192;-67
2022/07/19 09:00:30;;;;;;;5.97;2.20;;;;;;;39.74;14.73;100386.03;4967287;28;20310;-66
2022/07/19 09:03:01;;;;;;;9.85;2.05;;;;;;;39.51;14.66;100382.03;4984062;28;20686;-66
2022/07/19 09:05:28;;;;;;;10.90;2.75;;;;;;;39.75;14.66;100376.09;4974768;28;20188;-66
2022/07/19 09:08:12;;;;;;;7.03;2.20;;;;;;;39.68;14.77;100379.88;4975753;28;20236;-66
2022/07/19 09:10:40;;;;;;;7.65;2.33;;;;;;;40.09;14.48;100373.56;4966873;28;20246;-66
2022/07/19 09:13:16;;;;;;;7.90;2.30;;;;;;;40.06;14.40;100373.31;4985946;28;20203;-66
2022/07/19 09:15:53;;;;;;;12.98;2.20;;;;;;;41.44;13.35;100374.41;4962550;28;20204;-66
2022/07/19 09:18:21;;;;;;;9.10;2.50;;;;;;;41.85;13.60;100370.47;4975642;28;20254;-66
2022/07/19 09:20:49;;;;;;;3.97;2.22;;;;;;;42.05;14.10;100379.44;4958753;28;20251;-66
2022/07/19 09:23:15;;;;;;;10.48;2.53;;;;;;;41.84;13.71;100371.56;4973873;28;20254;-66
2022/07/19 09:25:44;;;;;;;5.60;2.67;;;;;;;42.60;12.02;100372.78;4975451;28;20266;-67
2022/07/19 09:28:10;;;;;;;6.45;2.50;;;;;;;43.05;12.05;100370.50;4989986;28;20176;-66
2022/07/19 09:30:43;;;;;;;4.65;2.22;;;;;;;41.32;13.21;100373.94;4969664;28;20242;-67
2022/07/19 09:33:17;;;;;;;10.55;2.08;;;;;;;41.73;13.11;100364.63;4970909;28;20215;-67
2022/07/19 09:35:49;;;;;;;12.38;2.55;;;;;;;41.22;13.12;100363.22;4965332;28;20244;-67
2022/07/19 09:38:19;;;;;;;12.52;2.55;;;;;;;42.19;12.54;100352.50;4990371;28;20562;-66
2022/07/19 09:40:45;;;;;;;4.38;1.90;;;;;;;41.30;12.98;100357.22;4970649;28;20701;-67
2022/07/19 09:43:10;;;;;;;3.80;2.33;;;;;;;40.98;13.31;100347.75;4984992;28;20191;-66
2022/07/19 09:45:36;;;;;;;5.45;2.08;;;;;;;40.74;14.08;100353.06;4975557;28;20176;-66
2022/07/19 09:48:03;;;;;;;7.75;2.03;;;;;;;43.13;12.75;100347.38;4974987;28;20598;-66
2022/07/19 09:50:29;;;;;;;3.65;1.83;;;;;;;43.00;12.24;100349.72;4963313;28;20247;-66
2022/07/19 09:52:58;;;;;;;6.38;1.80;;;;;;;39.76;13.46;100343.50;4962669;28;20251;-66
2022/07/19 09:55:24;;;;;;;2.53;1.52;;;;;;;40.27;13.83;100345.22;4989025;28;20206;-66
2022/07/19 09:57:51;;;;;;;4.32;1.60;;;;;;;42.28;12.49;100348.09;4970609;28;20185;-66
2022/07/19 10:00:21;;;;;;;6.45;1.58;;;;;;;44.40;12.19;100342.50;4963440;28;21121;-67
2022/07/19 10:02:56;;;;;;;5.00;1.85;;;;;;;44.21;11.77;100341.81;4987260;28;20204;-67
2022/07/19 10:05:22;;;;;;;3.22;1.50;;;;;;;44.41;10.82;100346.81;4975052;28;20197;-67
2022/07/19 10:07:48;;;;;;;3.90;1.60;;;;;;;44.20;11.46;100348.34;4974764;28;20246;-67
2022/07/19 10:10:16;;;;;;;1.67;1.35;;;;;;;45.95;10.97;100346.72;4966000;28;20188;-67
2022/07/19 10:12:44;;;;;;;1.65;1.35;;;;;;;47.20;9.76;100355.31;4988224;28;20199;-67
2022/07/19 10:15:11;;;;;;;2.70;1.42;;;;;;;43.80;11.62;100349.69;4974735;28;20211;-67
2022/07/19 10:18:02;;;;;;;3.35;1.70;;;;;;;41.98;11.81;100338.44;4974748;28;20176;-67
2022/07/19 10:20:29;;;;;;;5.35;1.80;;;;;;;44.40;11.18;100331.66;4967586;28;20230;-67
2022/07/19 10:22:57;;;;;;;1.70;1.30;;;;;;;44.68;10.58;100333.44;4973204;28;20658;-67
2022/07/19 10:25:23;;;;;;;4.72;1.70;;;;;;;40.54;13.16;100327.81;4974605;28;20632;-66
2022/07/19 10:27:51;;;;;;;5.28;1.65;;;;;;;41.86;12.92;100326.16;4974765;28;20271;-66
2022/07/19 10:30:20;;;;;;;3.83;1.52;;;;;;;41.97;13.14;100320.66;4965521;28;20675;-66
2022/07/19 10:32:47;;;;;;;6.50;1.80;;;;;;;42.32;12.81;100310.47;4973384;28;20212;-66
2022/07/19 10:35:24;;;;;;;5.82;1.50;;;;;;;42.41;12.21;100316.81;4974173;28;20712;-66
2022/07/19 10:38:02;;;;;;;2.08;1.50;;;;;;;44.18;11.96;100308.78;4974397;28;20219;-67
2022/07/19 10:40:38;;;;;;;3.10;1.65;;;;;;;41.55;12.36;100315.69;4962208;28;20244;-67
2022/07/19 10:43:06;;;;;;;6.20;1.42;;;;;;;41.58;12.50;100309.72;4961968;28;20199;-67
2022/07/19 10:45:31;;;;;;;5.82;1.80;;;;;;;41.36;12.75;100304.00;4972664;28;20184;-67
2022/07/19 10:47:58;;;;;;;2.55;1.40;;;;;;;41.41;12.64;100307.44;4974065;28;20183;-67
2022/07/19 10:50:42;;;;;;;10.77;2.03;;;;;;;40.02;14.73;100292.25;4966245;28;20663;-67
2022/07/19 10:53:07;;;;;;;3.13;1.30;;;;;;;39.53;14.14;100286.47;4984048;28;20191;-67
2022/07/19 10:55:32;;;;;;;5.72;1.52;;;;;;;38.14;14.44;100285.56;4973964;28;20261;-66
2022/07/19 10:57:58;;;;;;;2.05;1.10;;;;;;;36.35;16.92;100284.72;4973886;28;20275;-66
2022/07/19 11:00:26;;;;;;;3.60;1.90;;;;;;;36.31;16.74;100279.06;4952386;28;20237;-66
2022/07/19 11:03:12;;;;;;;2.00;1.80;;;;;;;35.83;16.38;100270.69;4966400;28;20448;-67
2022/07/19 11:05:49;;;;;;;2.03;1.58;;;;;;;35.19;16.97;100261.22;4969754;28;20195;-66
2022/07/19 11:08:15;;;;;;;4.38;1.60;;;;;;;35.36;16.97;100255.06;4973694;28;20369;-67
2022/07/19 11:10:40;;;;;;;4.45;1.73;;;;;;;35.30;18.07;100253.34;4961867;28;20306;-67
2022/07/19 11:13:06;;;;;;;4.40;1.92;;;;;;;35.31;18.41;100252.31;4965624;28;20188;-67
2022/07/19 11:15:32;;;;;;;2.85;1.63;;;;;;;35.44;17.38;100245.81;4967273;28;20231;-67
2022/07/19 11:18:05;;;;;;;5.15;1.50;;;;;;;35.17;17.17;100247.28;4971848;28;20308;-67
2022/07/19 11:20:34;;;;;;;4.50;1.85;;;;;;;35.18;18.97;100243.56;4966767;28;20282;-67
2022/07/19 11:23:03;;;;;;;3.65;2.03;;;;;;;35.08;16.98;100240.75;4968980;28;20192;-67